createdAt,value
2019-01-31T00:01:48.754Z,0.58
2019-01-31T00:05:05.055Z,0.55
2019-01-31T00:08:45.949Z,0.57
2019-01-31T00:12:23.373Z,0.57
2019-01-31T00:16:08.004Z,0.59
2019-01-31T00:20:03.815Z,0.58
2019-01-31T00:23:47.808Z,0.59
2019-01-31T00:27:17.608Z,0.58
2019-01-31T00:31:11.720Z,0.68
2019-01-31T00:34:54.077Z,0.66
2019-01-31T00:38:28.360Z,0.70
2019-01-31T00:42:14.953Z,0.67
2019-01-31T00:45:43.736Z,0.64
2019-01-31T00:49:11.828Z,0.69
2019-01-31T00:52:42.712Z,0.60
2019-01-31T00:55:55.589Z,0.62
2019-01-31T00:59:21.197Z,0.59
2019-01-31T01:02:42.208Z,0.55
2019-01-31T01:06:21.065Z,0.53
2019-01-31T01:09:48.928Z,0.44
2019-01-31T01:13:27.130Z,0.42
2019-01-31T01:17:05.806Z,0.41
2019-01-31T01:20:35.589Z,0.47
2019-01-31T01:24:18.518Z,0.52
2019-01-31T01:27:46.887Z,0.41
2019-01-31T01:31:22.363Z,0.40
2019-01-31T01:35:15.609Z,0.39
2019-01-31T01:38:58.662Z,0.42
2019-01-31T01:42:43.414Z,0.37
2019-01-31T01:46:23.640Z,0.37
2019-01-31T01:49:37.549Z,0.32
2019-01-31T01:53:09.788Z,0.36
2019-01-31T01:57:07.849Z,0.36
2019-01-31T02:01:17.499Z,0.32
2019-01-31T02:04:44.562Z,0.33
2019-01-31T02:08:05.683Z,0.35
2019-01-31T02:11:20.908Z,0.38
2019-01-31T02:14:33.784Z,0.37
2019-01-31T02:17:56.533Z,0.33
2019-01-31T02:21:30.022Z,0.35
2019-01-31T02:24:51.838Z,0.31
2019-01-31T02:28:19.333Z,0.32
2019-01-31T02:31:40.023Z,0.32
2019-01-31T02:35:08.342Z,0.34
2019-01-31T02:38:43.750Z,0.39
2019-01-31T02:42:14.407Z,0.41
2019-01-31T02:45:59.306Z,0.43
2019-01-31T02:49:43.629Z,0.40
2019-01-31T02:53:02.081Z,0.43
2019-01-31T02:56:50.075Z,0.44
2019-01-31T03:00:34.258Z,0.50
2019-01-31T03:04:12.618Z,0.47
2019-01-31T03:07:55.731Z,0.49
2019-01-31T03:11:27.104Z,0.55
2019-01-31T03:14:45.119Z,0.56
2019-01-31T03:18:19.653Z,0.55
2019-01-31T03:22:10.984Z,0.62
2019-01-31T03:25:55.535Z,0.59
2019-01-31T03:29:24.680Z,0.60
2019-01-31T03:32:55.185Z,0.57
2019-01-31T03:36:11.439Z,0.60
2019-01-31T03:39:22.787Z,0.64
2019-01-31T03:42:59.955Z,0.70
2019-01-31T03:46:40.622Z,0.74
2019-01-31T03:50:16.289Z,0.64
2019-01-31T03:53:56.646Z,0.62
2019-01-31T03:57:34.159Z,0.61
2019-01-31T04:01:19.837Z,0.64
2019-01-31T04:04:31.438Z,0.62
2019-01-31T04:07:35.235Z,0.59
2019-01-31T04:10:39.242Z,0.61
2019-01-31T04:13:43.083Z,0.61
2019-01-31T04:16:46.990Z,0.66
2019-01-31T04:19:50.839Z,0.66
2019-01-31T04:22:54.666Z,0.68
2019-01-31T04:25:58.588Z,0.67
2019-01-31T04:29:02.595Z,0.64
2019-01-31T04:32:06.549Z,0.63
2019-01-31T04:35:10.554Z,0.66
2019-01-31T04:38:14.338Z,0.67
2019-01-31T04:41:18.184Z,0.66
2019-01-31T04:44:22.056Z,0.65
2019-01-31T04:47:25.962Z,0.67
2019-01-31T04:50:29.804Z,0.65
2019-01-31T04:53:33.728Z,0.64
2019-01-31T04:56:37.656Z,0.62
2019-01-31T04:59:41.492Z,0.62
2019-01-31T05:02:45.471Z,0.57
2019-01-31T05:05:49.336Z,0.57
2019-01-31T05:08:53.184Z,0.56
2019-01-31T05:11:59.121Z,0.54
2019-01-31T05:15:03.131Z,0.54
2019-01-31T05:18:07.121Z,0.54
2019-01-31T05:21:11.535Z,0.56
2019-01-31T05:24:15.797Z,0.56
2019-01-31T05:27:19.858Z,0.59
2019-01-31T05:30:23.826Z,0.58
2019-01-31T05:33:27.806Z,0.62
2019-01-31T05:36:31.845Z,0.61
2019-01-31T05:39:35.964Z,0.61
2019-01-31T05:42:45.778Z,0.66
2019-01-31T05:45:49.887Z,0.65
2019-01-31T05:48:54.521Z,0.67
2019-01-31T05:51:59.264Z,0.66
2019-01-31T05:55:03.468Z,0.67
2019-01-31T05:58:08.119Z,0.65
2019-01-31T06:01:12.431Z,0.66
2019-01-31T06:04:16.553Z,0.69
2019-01-31T06:07:20.654Z,0.70
2019-01-31T06:10:25.328Z,0.77
2019-01-31T06:13:29.407Z,0.77
2019-01-31T06:16:33.335Z,0.78
2019-01-31T06:19:37.803Z,0.81
2019-01-31T06:22:41.717Z,0.91
2019-01-31T06:25:45.995Z,0.85
2019-01-31T06:28:49.965Z,0.85
2019-01-31T06:31:53.826Z,0.89
2019-01-31T06:34:57.671Z,0.87
2019-01-31T06:38:04.591Z,0.84
2019-01-31T06:41:18.406Z,0.82
2019-01-31T06:44:14.167Z,0.88
2019-01-31T06:47:18.100Z,0.83
2019-01-31T06:50:24.983Z,0.83
2019-01-31T06:53:29.120Z,0.83
2019-01-31T06:56:33.363Z,0.85
2019-01-31T06:59:37.414Z,0.84
2019-01-31T07:02:41.652Z,0.82
2019-01-31T07:05:45.995Z,0.77
2019-01-31T07:08:49.792Z,0.78
2019-01-31T07:11:53.711Z,0.74
2019-01-31T07:14:57.526Z,0.72
2019-01-31T07:18:01.456Z,0.70
2019-01-31T07:21:05.432Z,0.71
2019-01-31T07:24:09.469Z,0.70
2019-01-31T07:27:13.302Z,0.72
2019-01-31T07:30:17.404Z,0.72
2019-01-31T07:33:21.215Z,0.71
2019-01-31T07:36:25.096Z,0.77
2019-01-31T07:39:28.966Z,0.81
2019-01-31T07:42:32.803Z,0.74
2019-01-31T07:45:36.794Z,0.74
2019-01-31T07:48:40.618Z,0.73
2019-01-31T07:51:44.591Z,0.70
2019-01-31T07:54:48.408Z,0.69
2019-01-31T07:57:52.376Z,0.64
2019-01-31T08:00:56.236Z,0.58
2019-01-31T08:04:02.689Z,0.53
2019-01-31T08:07:05.869Z,0.52
2019-01-31T08:10:16.014Z,0.53
2019-01-31T08:13:20.030Z,0.55
2019-01-31T08:16:23.970Z,0.58
2019-01-31T08:19:27.861Z,0.61
2019-01-31T08:22:31.793Z,0.57
2019-01-31T08:25:35.723Z,0.54
2019-01-31T08:28:39.624Z,0.55
2019-01-31T08:31:43.653Z,0.55
2019-01-31T08:34:47.474Z,0.59
2019-01-31T08:37:51.404Z,0.61
2019-01-31T08:40:55.375Z,0.67
2019-01-31T08:43:59.235Z,0.71
2019-01-31T08:47:03.056Z,0.75
2019-01-31T08:50:09.173Z,0.79
2019-01-31T08:53:13.067Z,0.83
2019-01-31T08:56:16.967Z,0.83
2019-01-31T08:59:20.784Z,0.83
2019-01-31T09:02:24.707Z,0.83
2019-01-31T09:05:28.668Z,0.86
2019-01-31T09:08:32.469Z,0.86
2019-01-31T09:11:36.381Z,0.85
2019-01-31T09:14:40.362Z,0.91
2019-01-31T09:17:44.640Z,0.92
2019-01-31T09:20:55.468Z,0.92
2019-01-31T09:24:16.521Z,0.95
2019-01-31T09:27:56.370Z,0.97
2019-01-31T09:31:44.669Z,0.99
2019-01-31T09:35:09.293Z,1.00
2019-01-31T09:38:49.363Z,1.08
2019-01-31T09:42:26.067Z,1.09
2019-01-31T09:45:51.227Z,1.13
2019-01-31T09:49:21.877Z,1.19
2019-01-31T09:52:54.371Z,1.21
2019-01-31T09:56:21.526Z,1.18
2019-01-31T10:00:00.327Z,1.17
2019-01-31T10:03:53.097Z,1.20
2019-01-31T10:07:31.004Z,1.18
2019-01-31T10:11:01.765Z,1.21
2019-01-31T10:14:55.147Z,1.22
2019-01-31T10:18:29.138Z,1.27
2019-01-31T10:21:52.681Z,1.27
2019-01-31T10:25:23.992Z,1.29
2019-01-31T10:29:02.087Z,1.26
2019-01-31T10:32:20.428Z,1.26
2019-01-31T10:35:58.054Z,1.26
2019-01-31T10:39:35.661Z,1.31
2019-01-31T10:42:52.233Z,1.33
2019-01-31T10:46:23.816Z,1.29
2019-01-31T10:50:02.070Z,1.33
2019-01-31T10:53:46.216Z,1.32
2019-01-31T10:57:26.237Z,1.30
2019-01-31T11:00:43.033Z,1.28
2019-01-31T11:04:22.266Z,1.32
2019-01-31T11:07:43.181Z,1.35
2019-01-31T11:11:25.234Z,1.40
2019-01-31T11:14:56.054Z,1.45
2019-01-31T11:18:33.772Z,1.45
2019-01-31T11:22:09.582Z,1.48
2019-01-31T11:25:46.413Z,1.46
2019-01-31T11:29:20.577Z,1.46
2019-01-31T11:33:09.058Z,1.42
2019-01-31T11:36:40.868Z,1.45
2019-01-31T11:40:27.691Z,1.57
2019-01-31T11:44:08.610Z,1.52
2019-01-31T11:47:53.733Z,1.44
2019-01-31T11:51:29.559Z,1.48
2019-01-31T11:55:02.934Z,1.46
2019-01-31T11:58:43.275Z,1.45
2019-01-31T12:01:47.282Z,1.50
2019-01-31T12:04:51.094Z,1.51
2019-01-31T12:07:55.026Z,1.53
2019-01-31T12:10:58.871Z,1.50
2019-01-31T12:14:02.743Z,1.49
2019-01-31T12:17:07.319Z,1.49
2019-01-31T12:20:11.890Z,1.48
2019-01-31T12:23:15.707Z,1.53
2019-01-31T12:26:19.615Z,1.52
2019-01-31T12:29:23.489Z,1.59
2019-01-31T12:32:27.373Z,1.63
2019-01-31T12:35:31.282Z,1.64
2019-01-31T12:38:36.881Z,1.65
2019-01-31T12:41:40.829Z,1.65
2019-01-31T12:44:44.667Z,1.71
2019-01-31T12:47:48.444Z,1.70
2019-01-31T12:50:52.422Z,1.67
2019-01-31T12:53:56.282Z,1.68
2019-01-31T12:57:00.205Z,1.74
2019-01-31T13:00:06.173Z,1.78
2019-01-31T13:03:09.999Z,1.82
2019-01-31T13:06:13.910Z,1.83
2019-01-31T13:09:17.887Z,1.88
2019-01-31T13:12:21.763Z,1.91
2019-01-31T13:15:25.834Z,1.91
2019-01-31T13:18:29.834Z,1.96
2019-01-31T13:21:33.797Z,2.02
2019-01-31T13:24:37.682Z,1.97
2019-01-31T13:27:41.699Z,1.97
2019-01-31T13:30:45.666Z,2.01
2019-01-31T13:33:49.583Z,2.03
2019-01-31T13:36:53.486Z,2.04
2019-01-31T13:39:57.459Z,1.97
2019-01-31T13:43:01.405Z,1.94
2019-01-31T13:46:05.862Z,1.94
2019-01-31T13:49:09.784Z,1.96
2019-01-31T13:52:13.668Z,1.98
2019-01-31T13:55:25.997Z,1.99
2019-01-31T13:58:29.819Z,2.00
2019-01-31T14:01:33.783Z,2.02
2019-01-31T14:04:37.590Z,2.02
2019-01-31T14:07:41.491Z,2.04
2019-01-31T14:10:45.335Z,2.04
2019-01-31T14:13:49.178Z,2.04
2019-01-31T14:16:53.098Z,2.03
2019-01-31T14:19:56.965Z,2.04
2019-01-31T14:23:00.962Z,2.00
2019-01-31T14:26:05.339Z,1.97
2019-01-31T14:29:09.311Z,1.99
2019-01-31T14:32:15.566Z,1.97
2019-01-31T14:35:19.405Z,1.95
2019-01-31T14:38:23.274Z,1.95
2019-01-31T14:41:27.108Z,1.92
2019-01-31T14:44:30.969Z,1.94
2019-01-31T14:47:34.864Z,1.96
2019-01-31T14:50:38.801Z,1.95
2019-01-31T14:53:42.637Z,1.92
2019-01-31T14:56:46.544Z,1.87
2019-01-31T14:59:50.363Z,1.86
2019-01-31T15:02:54.278Z,1.88
2019-01-31T15:05:58.161Z,1.86
2019-01-31T15:09:02.062Z,1.83
2019-01-31T15:12:06.045Z,1.83
2019-01-31T15:15:10.437Z,1.83
2019-01-31T15:18:14.329Z,1.86
2019-01-31T15:21:18.121Z,1.79
2019-01-31T15:24:21.957Z,1.77
2019-01-31T15:27:25.782Z,1.72
2019-01-31T15:30:31.765Z,1.75
2019-01-31T15:33:35.691Z,1.73
2019-01-31T15:36:39.588Z,1.70
2019-01-31T15:39:43.455Z,1.70
2019-01-31T15:42:49.043Z,1.68
2019-01-31T15:45:53.130Z,1.65
2019-01-31T15:48:57.323Z,1.63
2019-01-31T15:52:01.485Z,1.60
2019-01-31T15:55:07.720Z,1.57
2019-01-31T15:58:11.534Z,1.55
2019-01-31T16:01:15.564Z,1.54
2019-01-31T16:04:20.302Z,1.51
2019-01-31T16:07:24.201Z,1.45
2019-01-31T16:10:28.180Z,1.43
2019-01-31T16:13:32.054Z,1.37
2019-01-31T16:16:36.010Z,1.36
2019-01-31T16:19:39.959Z,1.33
2019-01-31T16:22:44.010Z,1.31
2019-01-31T16:25:48.237Z,1.30
2019-01-31T16:28:52.160Z,1.25
2019-01-31T16:31:56.072Z,1.19
2019-01-31T16:35:00.055Z,1.13
2019-01-31T16:38:04.835Z,1.10
2019-01-31T16:41:08.718Z,1.07
2019-01-31T16:44:12.706Z,1.02
2019-01-31T16:47:16.614Z,1.02
2019-01-31T16:50:20.698Z,1.03
2019-01-31T16:53:24.693Z,1.01
2019-01-31T16:56:28.731Z,1.01
2019-01-31T16:59:32.613Z,1.02
2019-01-31T17:02:36.511Z,1.01
2019-01-31T17:05:40.504Z,0.97
2019-01-31T17:08:44.307Z,0.98
2019-01-31T17:11:48.130Z,0.99
2019-01-31T17:14:51.921Z,0.99
2019-01-31T17:17:55.878Z,1.00
2019-01-31T17:20:59.693Z,0.99
2019-01-31T17:24:03.590Z,0.99
2019-01-31T17:27:07.565Z,0.98
2019-01-31T17:30:17.369Z,0.99
2019-01-31T17:33:21.296Z,0.98
2019-01-31T17:36:25.105Z,0.97
2019-01-31T17:39:28.921Z,0.95
2019-01-31T17:42:32.735Z,0.89
2019-01-31T17:45:36.639Z,0.83
2019-01-31T17:48:40.556Z,0.76
2019-01-31T17:51:44.344Z,0.68
2019-01-31T17:54:48.155Z,0.65
2019-01-31T17:57:52.154Z,0.63
2019-01-31T18:00:59.498Z,0.63
2019-01-31T18:04:03.500Z,0.67
2019-01-31T18:07:07.552Z,0.69
2019-01-31T18:10:14.671Z,0.63
2019-01-31T18:13:18.470Z,0.60
2019-01-31T18:16:22.283Z,0.56
2019-01-31T18:19:26.110Z,0.57
2019-01-31T18:22:29.989Z,0.52
2019-01-31T18:25:33.906Z,0.46
2019-01-31T18:28:37.712Z,0.55
2019-01-31T18:31:41.589Z,0.54
2019-01-31T18:34:45.459Z,0.47
2019-01-31T18:37:49.435Z,0.46
2019-01-31T18:40:53.315Z,0.43
2019-01-31T18:43:57.199Z,0.43
2019-01-31T18:47:01.063Z,0.39
2019-01-31T18:50:07.321Z,0.42
2019-01-31T18:53:11.245Z,0.37
2019-01-31T18:56:15.197Z,0.39
2019-01-31T18:59:19.105Z,0.39
2019-01-31T19:02:22.983Z,0.38
2019-01-31T19:05:27.046Z,0.42
2019-01-31T19:08:30.952Z,0.37
2019-01-31T19:11:34.756Z,0.37
2019-01-31T19:14:38.577Z,0.37
2019-01-31T19:17:42.435Z,0.40
2019-01-31T19:20:46.387Z,0.45
2019-01-31T19:23:50.253Z,0.43
2019-01-31T19:26:54.183Z,0.37
2019-01-31T19:29:58.760Z,0.39
2019-01-31T19:33:02.860Z,0.39
2019-01-31T19:36:06.876Z,0.41
2019-01-31T19:39:15.755Z,0.43
2019-01-31T19:42:22.669Z,0.47
2019-01-31T19:45:27.924Z,0.45
2019-01-31T19:48:31.733Z,0.48
2019-01-31T19:51:35.698Z,0.46
2019-01-31T19:54:39.538Z,0.49
2019-01-31T19:57:43.411Z,0.45
2019-01-31T20:00:47.386Z,0.44
2019-01-31T20:03:52.610Z,0.40
2019-01-31T20:07:00.975Z,0.50
2019-01-31T20:10:06.729Z,0.48
2019-01-31T20:13:13.090Z,0.44
2019-01-31T20:16:28.656Z,0.50
2019-01-31T20:19:26.572Z,0.44
2019-01-31T20:22:34.427Z,0.44
2019-01-31T20:25:38.491Z,0.44
2019-01-31T20:28:42.369Z,0.39
2019-01-31T20:31:46.165Z,0.38
2019-01-31T20:34:50.149Z,0.34
2019-01-31T20:37:54.201Z,0.33
2019-01-31T20:40:59.108Z,0.26
2019-01-31T20:44:03.029Z,0.28
2019-01-31T20:47:07.006Z,0.28
2019-01-31T20:50:22.981Z,0.27
2019-01-31T20:53:26.983Z,0.24
2019-01-31T20:56:33.515Z,0.18
2019-01-31T20:59:36.472Z,0.16
2019-01-31T21:02:40.493Z,0.12
2019-01-31T21:05:44.678Z,0.10
2019-01-31T21:08:48.564Z,0.07
2019-01-31T21:11:52.449Z,0.08
2019-01-31T21:14:56.342Z,0.07
2019-01-31T21:18:00.310Z,0.06
2019-01-31T21:21:05.391Z,0.01
2019-01-31T21:24:09.618Z,-0.02
2019-01-31T21:27:13.796Z,-0.04
2019-01-31T21:30:25.685Z,-0.05
2019-01-31T21:33:29.517Z,-0.01
2019-01-31T21:36:33.479Z,-0.06
2019-01-31T21:39:37.435Z,-0.08
2019-01-31T21:42:41.331Z,-0.02
2019-01-31T21:45:45.413Z,-0.05
2019-01-31T21:48:49.286Z,-0.08
2019-01-31T21:51:53.520Z,-0.13
2019-01-31T21:54:57.410Z,-0.17
2019-01-31T21:58:01.289Z,-0.06
2019-01-31T22:01:05.188Z,-0.10
2019-01-31T22:04:09.005Z,-0.14
2019-01-31T22:07:12.833Z,-0.16
2019-01-31T22:10:18.502Z,-0.19
2019-01-31T22:13:22.433Z,-0.24
2019-01-31T22:16:26.326Z,-0.20
2019-01-31T22:19:30.295Z,-0.15
2019-01-31T22:22:34.191Z,-0.12
2019-01-31T22:25:38.054Z,-0.07
2019-01-31T22:28:41.893Z,-0.11
2019-01-31T22:31:45.765Z,-0.10
2019-01-31T22:34:49.689Z,-0.07
2019-01-31T22:37:53.919Z,-0.03
2019-01-31T22:40:57.827Z,0.01
2019-01-31T22:44:01.750Z,0.04
2019-01-31T22:47:05.626Z,0.10
2019-01-31T22:50:11.527Z,0.15
2019-01-31T22:53:15.347Z,0.13
2019-01-31T22:56:19.227Z,0.10
2019-01-31T22:59:23.104Z,0.15
2019-01-31T23:02:27.263Z,0.20
2019-01-31T23:05:31.336Z,0.19
2019-01-31T23:08:35.217Z,0.17
2019-01-31T23:11:39.191Z,0.14
2019-01-31T23:14:43.056Z,0.14
2019-01-31T23:17:46.979Z,0.12
2019-01-31T23:20:50.821Z,0.09
2019-01-31T23:23:54.609Z,0.10
2019-01-31T23:26:58.415Z,0.11
2019-01-31T23:30:02.318Z,-0.03
2019-01-31T23:33:06.241Z,-0.07
2019-01-31T23:36:10.212Z,-0.13
2019-01-31T23:39:14.144Z,-0.15
2019-01-31T23:42:18.042Z,-0.13
2019-01-31T23:45:21.995Z,-0.12
2019-01-31T23:48:25.899Z,-0.17
2019-01-31T23:51:29.865Z,-0.23
2019-01-31T23:54:33.766Z,-0.27
2019-01-31T23:57:37.751Z,-0.32
